Time;durP1;ratioP1;P1;durP2;ratioP2;P2;SDS_P1;SDS_P2;PMS_P1;PMS_P2;Temp;Humidity;BMP_temperature;BMP_pressure;BME280_temperature;BME280_humidity;BME280_pressure;Samples;Min_cycle;Max_cycle;Signal;HPM_P1;HPM_P2
2023/03/07 00:01:05;;;;;;;14.32;11.27;;;4.10;99.90;;;;;;5154218;27;20486;-68
2023/03/07 00:03:31;;;;;;;15.63;11.73;;;4.10;99.90;;;;;;5135742;27;20042;-68
2023/03/07 00:06:06;;;;;;;13.93;10.82;;;4.20;99.90;;;;;;5154064;27;20042;-67
2023/03/07 00:08:32;;;;;;;13.63;10.30;;;4.20;99.90;;;;;;5135647;27;20043;-69
2023/03/07 00:11:06;;;;;;;14.13;11.07;;;4.20;99.90;;;;;;5154387;27;20047;-69
2023/03/07 00:13:33;;;;;;;12.65;9.68;;;4.20;99.90;;;;;;5154181;27;20366;-67
2023/03/07 00:16:06;;;;;;;17.85;11.18;;;4.20;99.90;;;;;;5153984;27;20054;-67
2023/03/07 00:18:33;;;;;;;7.47;6.40;;;4.30;99.90;;;;;;5154055;27;20046;-67
2023/03/07 00:21:00;;;;;;;11.00;7.70;;;4.30;99.90;;;;;;5154470;27;20374;-67
2023/03/07 00:23:26;;;;;;;9.68;5.80;;;4.30;99.90;;;;;;5153795;27;20034;-69
2023/03/07 00:26:21;;;;;;;7.30;6.15;;;4.30;99.90;;;;;;5153909;27;20074;-67
2023/03/07 00:28:49;;;;;;;6.05;5.03;;;4.30;99.90;;;;;;5152436;27;20083;-67
2023/03/07 00:31:16;;;;;;;9.23;6.80;;;4.40;99.90;;;;;;5153764;27;20050;-68
2023/03/07 00:33:42;;;;;;;6.10;5.28;;;4.40;99.90;;;;;;5153775;27;20046;-67
2023/03/07 00:36:12;;;;;;;7.75;5.65;;;4.30;99.90;;;;;;5154193;27;20099;-68
2023/03/07 00:38:38;;;;;;;6.10;4.90;;;4.40;99.90;;;;;;5154519;27;20157;-67
2023/03/07 00:41:07;;;;;;;5.05;4.10;;;4.50;99.90;;;;;;5154380;27;20089;-68
2023/03/07 00:43:34;;;;;;;6.78;3.65;;;4.40;99.90;;;;;;5153501;27;20050;-68
2023/03/07 00:46:01;;;;;;;3.97;3.40;;;4.40;99.90;;;;;;5153735;27;20047;-67
2023/03/07 00:48:27;;;;;;;4.07;2.60;;;4.40;99.90;;;;;;5153646;27;20084;-68
2023/03/07 00:50:54;;;;;;;3.35;2.50;;;4.30;99.90;;;;;;5153674;27;20047;-68
2023/03/07 00:53:20;;;;;;;2.38;2.17;;;4.30;99.90;;;;;;5153336;27;20380;-67
2023/03/07 00:56:19;;;;;;;2.38;2.17;;;4.20;99.90;;;;;;5153777;27;20106;-68
2023/03/07 00:58:46;;;;;;;6.20;1.90;;;4.20;99.90;;;;;;5153797;27;20053;-67
2023/03/07 01:01:14;;;;;;;4.35;2.25;;;4.10;99.90;;;;;;5154242;27;20046;-69
2023/03/07 01:03:40;;;;;;;4.97;1.88;;;4.10;99.90;;;;;;5157351;27;20083;-67
2023/03/07 01:06:11;;;;;;;4.07;2.00;;;4.10;99.90;;;;;;5157619;27;20056;-68
2023/03/07 01:08:36;;;;;;;6.88;2.35;;;4.10;99.90;;;;;;5157717;27;20050;-67
2023/03/07 01:11:04;;;;;;;4.55;2.22;;;4.10;99.90;;;;;;5157820;27;20049;-67
2023/03/07 01:13:30;;;;;;;2.95;2.13;;;4.20;99.90;;;;;;5157379;27;20051;-68
2023/03/07 01:16:05;;;;;;;3.25;1.98;;;4.20;99.90;;;;;;5157795;27;20043;-68
2023/03/07 01:18:30;;;;;;;3.05;1.92;;;4.20;99.90;;;;;;5139142;27;20082;-68
2023/03/07 01:20:56;;;;;;;4.28;2.28;;;4.20;99.90;;;;;;5157284;27;20133;-69
2023/03/07 01:23:22;;;;;;;3.08;2.13;;;4.20;99.90;;;;;;5157331;27;20539;-67
2023/03/07 01:25:47;;;;;;;3.95;1.90;;;4.20;99.90;;;;;;5157083;27;20382;-68
2023/03/07 01:28:13;;;;;;;4.75;2.17;;;4.20;99.90;;;;;;5157170;27;20378;-69
2023/03/07 01:30:40;;;;;;;4.85;1.88;;;4.20;99.90;;;;;;5156825;27;20497;-68
2023/03/07 01:33:05;;;;;;;3.05;1.95;;;4.20;99.90;;;;;;5156786;27;20113;-68
2023/03/07 01:35:37;;;;;;;2.85;2.20;;;4.20;99.90;;;;;;5157220;27;20126;-68
2023/03/07 01:38:02;;;;;;;9.90;2.70;;;4.20;99.90;;;;;;5157298;27;20061;-68
2023/03/07 01:40:28;;;;;;;8.60;2.15;;;4.00;99.90;;;;;;5138230;27;20538;-67
2023/03/07 01:42:54;;;;;;;8.68;2.53;;;4.30;99.90;;;;;;5157233;27;20125;-68
2023/03/07 01:45:35;;;;;;;7.15;2.55;;;4.20;99.90;;;;;;5157184;27;20451;-67
2023/03/07 01:48:00;;;;;;;7.43;2.67;;;4.30;99.90;;;;;;5157216;27;20496;-67
2023/03/07 01:50:26;;;;;;;5.05;2.45;;;4.30;99.90;;;;;;5156763;27;20086;-68
2023/03/07 01:52:57;;;;;;;5.00;2.47;;;4.20;99.90;;;;;;5156610;27;20049;-67
2023/03/07 01:55:34;;;;;;;5.32;2.65;;;4.30;99.90;;;;;;5157179;27;20062;-68
2023/03/07 01:58:05;;;;;;;5.85;2.72;;;4.30;99.90;;;;;;5156679;27;20045;-68
2023/03/07 02:00:31;;;;;;;4.15;2.55;;;4.20;99.90;;;;;;5138321;27;20043;-68
2023/03/07 02:03:14;;;;;;;6.07;2.40;;;4.20;99.90;;;;;;5156414;27;20078;-68
2023/03/07 02:05:44;;;;;;;;;;;4.30;99.90;;;;;;5156413;27;20569;-68
2023/03/07 02:08:12;;;;;;;10.07;2.60;;;4.20;99.90;;;;;;5156105;27;19922;-69
2023/03/07 02:10:40;;;;;;;4.68;2.50;;;4.20;99.90;;;;;;5156183;27;20065;-69
2023/03/07 02:13:06;;;;;;;7.47;2.10;;;4.20;99.90;;;;;;5137031;27;20070;-69
2023/03/07 02:15:35;;;;;;;8.23;2.75;;;4.10;99.90;;;;;;5156165;27;20043;-68
2023/03/07 02:18:03;;;;;;;5.18;2.85;;;4.20;99.90;;;;;;5156133;27;20078;-68
2023/03/07 02:20:43;;;;;;;5.13;2.35;;;4.10;99.90;;;;;;5137984;27;20042;-68
2023/03/07 02:23:30;;;;;;;3.67;2.72;;;4.10;99.90;;;;;;5155928;27;20521;-68
2023/03/07 02:26:01;;;;;;;6.45;2.42;;;4.10;99.90;;;;;;5156087;27;20045;-69
2023/03/07 02:28:27;;;;;;;8.10;3.30;;;4.00;99.90;;;;;;5156394;27;20043;-68
2023/03/07 02:30:58;;;;;;;7.78;2.97;;;4.00;99.90;;;;;;5155875;27;20469;-68
2023/03/07 02:33:24;;;;;;;10.13;4.45;;;4.00;99.90;;;;;;5155633;27;20046;-69
2023/03/07 02:35:56;;;;;;;8.35;2.58;;;3.90;99.90;;;;;;5155527;27;20386;-68
2023/03/07 02:38:23;;;;;;;9.23;3.33;;;3.90;99.90;;;;;;5156105;27;20425;-69
2023/03/07 02:40:51;;;;;;;5.97;2.50;;;4.10;99.90;;;;;;5155873;27;20057;-69
2023/03/07 02:43:17;;;;;;;11.90;3.20;;;4.00;99.90;;;;;;5155235;27;20103;-68
2023/03/07 02:45:43;;;;;;;7.25;2.78;;;3.90;99.90;;;;;;5137118;27;20055;-70
2023/03/07 02:48:09;;;;;;;6.50;2.92;;;3.90;99.90;;;;;;5137124;27;20110;-69
2023/03/07 02:50:35;;;;;;;8.30;2.70;;;4.10;99.90;;;;;;5155358;27;20379;-68
2023/03/07 02:53:00;;;;;;;8.85;3.25;;;3.90;99.90;;;;;;5155050;27;20047;-68
2023/03/07 02:55:26;;;;;;;7.95;2.60;;;3.90;99.90;;;;;;5155732;27;20050;-69
2023/03/07 02:57:52;;;;;;;10.73;3.97;;;3.80;99.90;;;;;;5155116;27;20061;-68
2023/03/07 03:00:18;;;;;;;6.10;3.60;;;4.10;99.90;;;;;;5155423;27;20065;-68
2023/03/07 03:02:44;;;;;;;7.82;2.88;;;3.80;99.90;;;;;;5155013;27;20038;-71
2023/03/07 03:05:11;;;;;;;10.25;3.63;;;3.90;99.90;;;;;;5154999;27;20070;-68
2023/03/07 03:07:37;;;;;;;7.85;2.80;;;3.90;99.90;;;;;;5155437;27;20085;-70
2023/03/07 03:10:03;;;;;;;11.50;3.20;;;3.80;99.90;;;;;;5155364;27;20039;-68
2023/03/07 03:12:29;;;;;;;8.52;2.90;;;3.80;99.90;;;;;;5155295;27;20035;-68
2023/03/07 03:14:54;;;;;;;7.63;3.05;;;4.20;99.90;;;;;;5154982;27;20081;-67
2023/03/07 03:17:20;;;;;;;5.82;3.17;;;3.80;99.90;;;;;;5155249;27;20034;-68
2023/03/07 03:19:46;;;;;;;8.18;3.33;;;3.80;99.90;;;;;;5155081;27;20049;-68
2023/03/07 03:22:11;;;;;;;8.48;2.67;;;3.70;99.90;;;;;;5154775;27;20172;-68
2023/03/07 03:24:39;;;;;;;10.77;2.72;;;3.70;99.90;;;;;;5155055;27;20047;-69
2023/03/07 03:27:05;;;;;;;7.20;2.70;;;3.90;99.90;;;;;;5154443;27;20465;-68
2023/03/07 03:29:31;;;;;;;8.57;2.90;;;3.70;99.90;;;;;;5154769;27;20046;-69
2023/03/07 03:31:56;;;;;;;6.75;3.42;;;3.70;99.90;;;;;;5154730;27;20054;-69
2023/03/07 03:34:22;;;;;;;9.40;3.45;;;3.70;99.90;;;;;;5136290;27;20081;-68
2023/03/07 03:36:48;;;;;;;6.80;3.00;;;3.60;99.90;;;;;;5136191;27;20051;-69
2023/03/07 03:39:14;;;;;;;6.75;2.42;;;3.70;99.90;;;;;;5154558;27;20112;-68
2023/03/07 03:41:40;;;;;;;10.40;2.95;;;3.70;99.90;;;;;;5154594;27;20043;-69
2023/03/07 03:44:05;;;;;;;7.05;2.88;;;3.70;99.90;;;;;;5154336;27;20062;-69
2023/03/07 03:46:31;;;;;;;12.23;3.50;;;3.60;99.90;;;;;;5154701;27;20494;-69
2023/03/07 03:48:57;;;;;;;7.85;3.15;;;3.70;99.90;;;;;;5136223;27;20057;-68
2023/03/07 03:51:23;;;;;;;9.32;2.90;;;3.60;99.90;;;;;;5136517;27;20039;-68
2023/03/07 03:53:50;;;;;;;5.50;2.30;;;3.60;99.90;;;;;;5154947;27;20082;-68
2023/03/07 03:56:18;;;;;;;8.90;2.95;;;3.60;99.90;;;;;;5135763;27;20039;-68
2023/03/07 03:58:51;;;;;;;4.90;2.40;;;3.60;99.90;;;;;;5154302;27;20050;-69
2023/03/07 04:01:19;;;;;;;6.85;2.50;;;3.70;99.90;;;;;;5136484;27;20095;-69
2023/03/07 04:03:47;;;;;;;6.50;2.55;;;3.70;99.90;;;;;;5135859;27;20458;-67
2023/03/07 04:06:22;;;;;;;8.10;2.08;;;3.90;99.90;;;;;;5118997;27;20043;-69
2023/03/07 04:08:49;;;;;;;7.22;2.95;;;3.60;99.90;;;;;;5154037;27;20512;-68
2023/03/07 04:11:15;;;;;;;7.30;2.30;;;3.60;99.90;;;;;;5135520;27;20047;-69
2023/03/07 04:13:41;;;;;;;7.22;2.30;;;3.60;99.90;;;;;;5154138;27;20061;-68
2023/03/07 04:16:07;;;;;;;6.75;2.45;;;3.60;99.90;;;;;;5153936;27;20054;-69
2023/03/07 04:18:34;;;;;;;5.97;2.35;;;3.50;99.90;;;;;;5154481;27;20043;-69
2023/03/07 04:20:59;;;;;;;3.70;2.40;;;3.50;99.90;;;;;;5154044;27;20035;-70
2023/03/07 04:23:26;;;;;;;7.72;2.60;;;3.50;99.90;;;;;;5135778;27;20045;-69
2023/03/07 04:25:58;;;;;;;7.15;2.95;;;3.50;99.90;;;;;;5153999;27;20050;-69
2023/03/07 04:28:27;;;;;;;9.57;2.38;;;3.50;99.90;;;;;;5136135;27;20070;-70
2023/03/07 04:30:53;;;;;;;8.55;2.50;;;3.50;99.90;;;;;;5153907;27;20039;-69
2023/03/07 04:33:19;;;;;;;5.20;3.60;;;3.50;99.90;;;;;;5154394;27;20193;-70
2023/03/07 04:35:45;;;;;;;4.97;2.30;;;3.60;99.90;;;;;;5154423;27;20461;-70
2023/03/07 04:38:12;;;;;;;5.80;2.40;;;3.40;99.90;;;;;;5139908;27;20050;-68
2023/03/07 04:40:38;;;;;;;8.27;2.55;;;3.40;99.90;;;;;;5157967;27;20043;-69
2023/03/07 04:43:06;;;;;;;6.13;2.55;;;3.40;99.90;;;;;;5157800;27;20046;-68
2023/03/07 04:45:36;;;;;;;7.10;2.58;;;3.40;99.90;;;;;;5157964;27;20089;-69
2023/03/07 04:48:02;;;;;;;4.38;1.98;;;3.40;99.90;;;;;;5139224;27;20513;-70
2023/03/07 04:50:28;;;;;;;5.38;2.72;;;3.40;99.90;;;;;;5157830;27;20039;-69
2023/03/07 04:52:54;;;;;;;7.00;2.60;;;3.40;99.90;;;;;;5139736;27;20535;-69
2023/03/07 04:55:19;;;;;;;4.85;2.85;;;3.50;99.90;;;;;;5139456;27;20047;-69
2023/03/07 04:57:46;;;;;;;4.55;2.65;;;3.50;99.90;;;;;;5157536;27;20401;-69
2023/03/07 05:00:13;;;;;;;9.40;2.60;;;3.40;99.90;;;;;;5157634;27;20042;-69
2023/03/07 05:02:39;;;;;;;9.40;2.75;;;3.40;99.90;;;;;;5139130;27;20057;-67
2023/03/07 05:05:05;;;;;;;8.48;3.15;;;3.40;99.90;;;;;;5158126;27;20046;-69
2023/03/07 05:07:31;;;;;;;6.55;2.60;;;3.40;99.90;;;;;;5157534;27;20062;-69
2023/03/07 05:09:57;;;;;;;11.48;4.25;;;3.50;99.90;;;;;;5157458;27;20055;-69
2023/03/07 05:12:23;;;;;;;5.68;2.47;;;3.50;99.90;;;;;;5157239;27;20047;-68
2023/03/07 05:14:49;;;;;;;5.07;2.60;;;3.50;99.90;;;;;;5157272;27;20121;-68
2023/03/07 05:17:15;;;;;;;6.78;2.15;;;3.50;99.90;;;;;;5157869;27;20078;-70
2023/03/07 05:19:41;;;;;;;8.35;2.60;;;3.50;99.90;;;;;;5157607;27;20091;-68
2023/03/07 05:22:08;;;;;;;5.38;3.00;;;3.50;99.90;;;;;;5139081;27;20049;-68
2023/03/07 05:24:34;;;;;;;8.38;2.47;;;3.80;99.90;;;;;;5157305;27;20053;-69
2023/03/07 05:27:00;;;;;;;8.23;2.65;;;3.50;99.90;;;;;;5138531;27;20050;-68
2023/03/07 05:29:26;;;;;;;6.57;3.08;;;3.50;99.90;;;;;;5157262;27;20095;-69
2023/03/07 05:31:52;;;;;;;8.00;2.75;;;3.50;99.90;;;;;;5157019;27;20038;-68
2023/03/07 05:34:17;;;;;;;5.75;2.92;;;3.60;99.90;;;;;;5138741;27;20039;-69
2023/03/07 05:36:43;;;;;;;8.73;3.13;;;3.60;99.90;;;;;;5156890;27;20121;-68
2023/03/07 05:39:09;;;;;;;9.25;3.63;;;3.70;99.90;;;;;;5157164;27;20054;-70
2023/03/07 05:41:35;;;;;;;5.57;2.95;;;3.70;99.90;;;;;;5138879;27;20043;-69
2023/03/07 05:44:02;;;;;;;8.75;2.67;;;3.70;99.90;;;;;;5121174;27;20091;-70
2023/03/07 05:46:28;;;;;;;7.50;2.97;;;3.70;99.90;;;;;;5156941;27;20047;-69
2023/03/07 05:48:54;;;;;;;7.78;2.63;;;4.00;99.90;;;;;;5155344;27;20053;-69
2023/03/07 05:51:20;;;;;;;7.55;2.63;;;3.60;99.90;;;;;;5156188;27;20045;-70
2023/03/07 05:53:46;;;;;;;7.75;3.45;;;3.60;99.90;;;;;;5156446;27;20047;-71
2023/03/07 05:56:12;;;;;;;10.45;2.60;;;3.60;99.90;;;;;;5156568;27;20474;-69
2023/03/07 05:58:38;;;;;;;9.02;2.67;;;3.70;99.90;;;;;;5156708;27;20048;-69
2023/03/07 06:01:04;;;;;;;6.60;2.63;;;3.70;99.90;;;;;;5156482;27;20121;-67
2023/03/07 06:03:30;;;;;;;6.03;2.72;;;3.60;99.90;;;;;;5156180;27;20046;-69
2023/03/07 06:05:56;;;;;;;10.77;4.00;;;3.60;99.90;;;;;;5156616;27;20049;-69
2023/03/07 06:08:22;;;;;;;4.88;2.45;;;3.60;99.90;;;;;;5156886;27;20035;-69
2023/03/07 06:10:52;;;;;;;4.22;2.30;;;3.60;99.90;;;;;;5138114;27;20342;-69
2023/03/07 06:13:22;;;;;;;7.82;3.15;;;3.60;99.90;;;;;;5156111;27;20050;-69
2023/03/07 06:15:53;;;;;;;4.30;2.80;;;3.90;99.90;;;;;;5137823;27;20042;-70
2023/03/07 06:18:20;;;;;;;6.97;2.58;;;3.60;99.90;;;;;;5156246;27;20114;-69
2023/03/07 06:21:01;;;;;;;5.80;2.30;;;3.60;99.90;;;;;;5155805;27;20496;-70
2023/03/07 06:23:29;;;;;;;6.28;3.78;;;3.50;99.90;;;;;;5137389;27;20129;-70
2023/03/07 06:25:55;;;;;;;4.47;2.53;;;3.50;99.90;;;;;;5156218;27;20074;-69
2023/03/07 06:28:21;;;;;;;7.63;2.28;;;3.50;99.90;;;;;;5137441;27;20061;-69
2023/03/07 06:30:47;;;;;;;10.13;3.25;;;3.60;99.90;;;;;;5155715;27;20046;-70
2023/03/07 06:33:13;;;;;;;6.93;2.65;;;3.60;99.90;;;;;;5155894;27;20043;-70
2023/03/07 06:35:40;;;;;;;7.88;2.83;;;3.60;99.90;;;;;;5137166;27;20095;-69
2023/03/07 06:38:06;;;;;;;5.00;1.92;;;3.60;99.90;;;;;;5155621;27;20077;-69
2023/03/07 06:40:32;;;;;;;5.38;2.72;;;3.70;99.90;;;;;;5155174;27;20039;-69
2023/03/07 06:42:58;;;;;;;9.65;2.75;;;3.70;99.90;;;;;;5155473;27;20052;-69
2023/03/07 06:45:23;;;;;;;4.90;2.20;;;3.70;99.90;;;;;;5136714;27;20134;-69
2023/03/07 06:47:49;;;;;;;8.63;2.45;;;3.70;99.90;;;;;;5136711;27;20130;-68
2023/03/07 06:50:15;;;;;;;4.43;2.33;;;3.80;99.90;;;;;;5155666;27;20066;-69
2023/03/07 06:52:41;;;;;;;6.97;2.60;;;3.80;99.90;;;;;;5155366;27;20538;-70
2023/03/07 06:55:07;;;;;;;10.30;2.75;;;3.80;99.90;;;;;;5155500;27;20090;-69
2023/03/07 06:57:33;;;;;;;7.32;1.92;;;3.80;99.90;;;;;;5136820;27;20042;-69
2023/03/07 07:00:01;;;;;;;7.13;2.75;;;3.80;99.90;;;;;;5155148;27;20424;-69
2023/03/07 07:02:27;;;;;;;10.95;2.47;;;3.90;99.90;;;;;;5155243;27;20042;-71
2023/03/07 07:04:52;;;;;;;5.05;2.30;;;3.90;99.90;;;;;;5137303;27;20048;-70
2023/03/07 07:07:18;;;;;;;5.15;2.53;;;3.90;99.90;;;;;;5136754;27;20518;-69
2023/03/07 07:09:44;;;;;;;6.13;2.35;;;3.90;99.90;;;;;;5155141;27;20051;-69
2023/03/07 07:12:09;;;;;;;4.53;2.28;;;3.90;99.90;;;;;;5136930;27;20039;-70
2023/03/07 07:14:35;;;;;;;5.88;2.35;;;3.90;99.90;;;;;;5155374;27;20448;-69
2023/03/07 07:17:01;;;;;;;6.25;1.83;;;3.90;99.90;;;;;;5154886;27;20062;-70
2023/03/07 07:19:26;;;;;;;7.15;1.88;;;3.90;99.90;;;;;;5155379;27;20050;-69
2023/03/07 07:21:53;;;;;;;6.93;1.83;;;3.90;99.90;;;;;;5154857;27;20487;-68
2023/03/07 07:24:18;;;;;;;7.07;1.77;;;3.80;99.90;;;;;;5155300;27;20115;-70
2023/03/07 07:26:44;;;;;;;6.60;1.77;;;3.80;99.90;;;;;;5155360;27;20423;-69
2023/03/07 07:29:10;;;;;;;6.53;2.85;;;3.80;99.90;;;;;;5155457;27;20042;-69
2023/03/07 07:31:36;;;;;;;8.68;2.30;;;3.80;99.90;;;;;;5156497;27;20043;-68
2023/03/07 07:34:02;;;;;;;5.75;2.95;;;3.80;99.90;;;;;;5138212;27;20043;-69
2023/03/07 07:36:28;;;;;;;4.53;1.98;;;3.80;99.90;;;;;;5156575;27;20122;-70
2023/03/07 07:38:54;;;;;;;6.13;2.08;;;3.80;99.90;;;;;;5157054;27;20053;-69
2023/03/07 07:41:22;;;;;;;8.05;2.65;;;3.80;99.90;;;;;;5104615;27;20474;-69
2023/03/07 07:43:51;;;;;;;6.22;1.63;;;3.80;99.90;;;;;;5155531;27;20092;-71
2023/03/07 07:46:17;;;;;;;8.43;1.67;;;4.10;99.90;;;;;;5154777;27;20149;-69
2023/03/07 07:48:45;;;;;;;3.15;1.80;;;3.80;99.90;;;;;;5136613;27;20094;-69
2023/03/07 07:51:10;;;;;;;6.97;1.98;;;3.90;99.90;;;;;;5154390;27;20042;-69
2023/03/07 07:53:36;;;;;;;11.48;2.25;;;3.90;99.90;;;;;;5154273;27;20078;-69
2023/03/07 07:56:02;;;;;;;4.05;1.83;;;3.80;99.90;;;;;;5136504;27;20042;-70
2023/03/07 07:58:27;;;;;;;3.63;1.70;;;3.80;99.90;;;;;;5154647;27;20544;-69
2023/03/07 08:00:53;;;;;;;5.32;1.92;;;3.80;99.90;;;;;;5154035;27;20508;-68
2023/03/07 08:03:19;;;;;;;6.20;1.80;;;3.90;99.90;;;;;;5154451;27;20144;-69
2023/03/07 08:05:47;;;;;;;3.58;1.90;;;4.00;99.90;;;;;;5136065;27;20455;-68
2023/03/07 08:08:14;;;;;;;3.05;2.00;;;3.90;99.90;;;;;;5154090;27;20078;-69
2023/03/07 08:10:42;;;;;;;2.95;1.70;;;4.00;99.90;;;;;;5153272;27;20046;-68
2023/03/07 08:13:10;;;;;;;6.53;1.50;;;4.00;99.90;;;;;;5154328;27;20050;-68
2023/03/07 08:15:36;;;;;;;5.30;2.17;;;4.00;99.90;;;;;;5154578;27;20046;-69
2023/03/07 08:18:01;;;;;;;3.90;1.60;;;4.00;99.90;;;;;;5153955;27;20087;-68
2023/03/07 08:20:27;;;;;;;4.50;1.73;;;4.00;99.90;;;;;;5135535;27;20050;-68
2023/03/07 08:22:53;;;;;;;4.47;1.75;;;4.10;99.90;;;;;;5136377;27;20085;-70
2023/03/07 08:25:22;;;;;;;3.00;1.92;;;4.10;99.90;;;;;;5153733;27;20047;-70
2023/03/07 08:27:51;;;;;;;6.03;1.98;;;4.10;99.90;;;;;;5135317;27;20061;-70
2023/03/07 08:30:19;;;;;;;3.78;1.83;;;4.20;99.90;;;;;;5153478;27;20448;-69
2023/03/07 08:32:47;;;;;;;8.38;1.77;;;4.20;99.90;;;;;;5135657;27;20061;-69
2023/03/07 08:35:12;;;;;;;6.03;2.00;;;4.30;99.90;;;;;;5135422;27;20561;-69
2023/03/07 08:37:39;;;;;;;5.18;1.70;;;4.40;99.90;;;;;;5154495;27;20125;-69
2023/03/07 08:40:05;;;;;;;1.90;1.48;;;4.40;99.90;;;;;;5154156;27;20051;-68
2023/03/07 08:42:31;;;;;;;4.22;1.40;;;4.50;99.90;;;;;;5154671;27;20159;-68
2023/03/07 08:44:57;;;;;;;3.80;1.50;;;4.60;99.90;;;;;;5118881;27;20455;-69
2023/03/07 08:47:23;;;;;;;2.90;1.15;;;4.50;99.90;;;;;;5135964;27;20055;-68
2023/03/07 08:49:49;;;;;;;2.95;1.88;;;3.80;99.90;;;;;;5154246;27;20046;-69
2023/03/07 08:52:14;;;;;;;9.80;2.42;;;4.60;99.90;;;;;;5154030;27;20050;-71
2023/03/07 08:54:40;;;;;;;5.57;1.70;;;4.50;99.90;;;;;;5119040;27;20114;-68
2023/03/07 08:57:06;;;;;;;4.75;1.75;;;4.60;99.90;;;;;;5153749;27;20117;-69
2023/03/07 08:59:31;;;;;;;2.95;1.33;;;4.90;99.90;;;;;;5135285;27;20047;-69
2023/03/07 09:01:57;;;;;;;2.67;1.58;;;4.60;99.90;;;;;;5154116;27;20106;-71
2023/03/07 09:04:23;;;;;;;3.50;1.70;;;4.60;99.90;;;;;;5135101;27;20058;-69
2023/03/07 09:06:49;;;;;;;6.28;1.50;;;4.60;99.90;;;;;;5153591;27;20050;-70
2023/03/07 09:09:14;;;;;;;5.50;1.77;;;4.60;99.90;;;;;;5135883;27;20038;-69
2023/03/07 09:11:40;;;;;;;3.53;1.55;;;4.60;99.90;;;;;;5135313;27;20504;-68
2023/03/07 09:14:06;;;;;;;4.55;1.73;;;4.50;99.90;;;;;;5153544;27;20045;-68
2023/03/07 09:16:31;;;;;;;3.40;1.60;;;4.40;99.90;;;;;;5118056;27;20053;-71
2023/03/07 09:18:57;;;;;;;3.83;1.60;;;4.30;99.90;;;;;;5135855;27;20480;-69
2023/03/07 09:21:23;;;;;;;5.00;1.65;;;4.30;99.90;;;;;;5135296;27;20074;-69
2023/03/07 09:23:48;;;;;;;2.15;1.45;;;4.80;99.90;;;;;;5157146;27;20046;-70
2023/03/07 09:26:14;;;;;;;2.33;1.35;;;4.30;99.90;;;;;;5105108;27;20383;-69
2023/03/07 09:28:40;;;;;;;3.00;1.60;;;4.20;99.90;;;;;;5157327;27;20130;-70
2023/03/07 09:31:11;;;;;;;4.35;2.10;;;4.20;99.90;;;;;;5139383;27;20078;-68
2023/03/07 09:33:37;;;;;;;3.88;1.60;;;4.30;99.90;;;;;;5138681;27;20446;-70
2023/03/07 09:36:08;;;;;;;3.10;1.70;;;3.90;99.90;;;;;;5156873;27;20506;-69
2023/03/07 09:38:34;;;;;;;7.60;2.03;;;3.90;99.90;;;;;;5157446;27;20046;-69
2023/03/07 09:41:11;;;;;;;2.78;1.95;;;3.90;99.90;;;;;;5138599;27;20043;-69
2023/03/07 09:43:56;;;;;;;4.60;1.92;;;3.90;99.90;;;;;;5139165;27;20102;-69
2023/03/07 09:46:46;;;;;;;3.50;1.80;;;3.80;99.90;;;;;;5156866;27;20503;-69
2023/03/07 09:49:24;;;;;;;2.55;1.55;;;3.70;99.90;;;;;;5156804;27;20087;-70
2023/03/07 09:51:52;;;;;;;2.08;1.80;;;3.80;99.90;;;;;;5138725;27;20087;-69
2023/03/07 09:54:26;;;;;;;3.40;1.98;;;3.90;99.90;;;;;;5156734;27;20046;-69
2023/03/07 09:56:55;;;;;;;4.07;1.63;;;3.90;99.90;;;;;;5138508;27;20042;-70
2023/03/07 09:59:40;;;;;;;3.33;1.75;;;3.90;99.90;;;;;;5157143;27;20098;-71
2023/03/07 10:02:12;;;;;;;6.38;2.28;;;4.10;99.90;;;;;;5138471;27;20046;-69
2023/03/07 10:04:51;;;;;;;4.65;1.65;;;4.20;99.90;;;;;;5156447;27;20046;-69
2023/03/07 10:07:22;;;;;;;5.63;2.20;;;4.10;99.90;;;;;;5156703;27;20519;-72
2023/03/07 10:09:52;;;;;;;4.32;2.40;;;4.30;99.90;;;;;;5138492;27;20054;-70
2023/03/07 10:12:43;;;;;;;6.22;1.73;;;4.30;99.90;;;;;;5138277;27;20107;-71
2023/03/07 10:15:33;;;;;;;4.65;1.95;;;4.40;99.90;;;;;;5138026;27;20069;-72
2023/03/07 10:18:10;;;;;;;5.88;2.20;;;4.50;99.90;;;;;;5155832;27;20179;-70
2023/03/07 10:20:59;;;;;;;3.10;2.03;;;4.70;99.90;;;;;;5155887;27;20479;-70
2023/03/07 10:23:31;;;;;;;6.05;2.22;;;4.80;99.90;;;;;;5137587;27;20050;-69
2023/03/07 10:26:11;;;;;;;5.65;1.90;;;4.80;99.90;;;;;;5137246;27;20136;-70
2023/03/07 10:28:42;;;;;;;5.35;2.30;;;5.00;99.90;;;;;;5155757;27;20046;-71
2023/03/07 10:31:16;;;;;;;8.38;2.83;;;5.30;99.90;;;;;;5137700;27;20082;-71
2023/03/07 10:33:46;;;;;;;4.28;1.92;;;5.50;99.90;;;;;;5154808;27;20039;-69
2023/03/07 10:36:26;;;;;;;6.15;2.03;;;5.90;99.90;;;;;;5155521;27;20050;-71
2023/03/07 10:39:25;;;;;;;4.18;2.40;;;6.10;99.90;;;;;;5119903;27;20075;-69
2023/03/07 10:41:52;;;;;;;5.75;2.03;;;6.10;99.90;;;;;;5155718;27;20645;-71
2023/03/07 10:44:20;;;;;;;6.30;2.28;;;6.20;99.90;;;;;;5155408;27;20470;-71
2023/03/07 10:46:50;;;;;;;4.35;1.80;;;6.40;99.90;;;;;;5136513;27;20503;-69
2023/03/07 10:49:21;;;;;;;5.32;1.83;;;6.50;99.90;;;;;;5137172;27;20067;-69
2023/03/07 10:51:56;;;;;;;6.13;1.80;;;6.40;99.90;;;;;;5155143;27;20416;-69
2023/03/07 10:54:29;;;;;;;3.85;1.48;;;6.30;99.90;;;;;;5155528;27;20471;-70
2023/03/07 10:57:15;;;;;;;6.53;1.85;;;6.40;99.90;;;;;;5136900;27;20082;-69
2023/03/07 10:59:43;;;;;;;6.30;1.80;;;6.60;99.90;;;;;;5155208;27;20501;-70
2023/03/07 11:02:33;;;;;;;2.22;1.88;;;6.60;99.90;;;;;;5136665;27;20047;-70
2023/03/07 11:05:00;;;;;;;3.15;1.25;;;6.50;99.90;;;;;;5137266;27;20134;-70
2023/03/07 11:07:28;;;;;;;5.03;2.38;;;6.60;99.90;;;;;;5155165;27;20466;-70
2023/03/07 11:09:57;;;;;;;7.68;1.98;;;6.50;99.90;;;;;;5136749;27;20046;-70
2023/03/07 11:12:24;;;;;;;7.22;2.20;;;6.50;99.90;;;;;;5155570;27;20379;-69
2023/03/07 11:14:51;;;;;;;3.20;2.10;;;6.40;99.90;;;;;;5136791;27;20051;-70
2023/03/07 11:17:37;;;;;;;3.72;1.83;;;6.50;99.90;;;;;;5155269;27;20130;-71
2023/03/07 11:20:47;;;;;;;3.90;1.60;;;6.50;99.90;;;;;;5154897;27;20043;-71
2023/03/07 11:23:17;;;;;;;3.03;1.67;;;6.40;99.90;;;;;;5136395;27;20053;-69
2023/03/07 11:25:43;;;;;;;6.00;1.92;;;6.30;99.90;;;;;;5136705;27;20127;-69
2023/03/07 11:28:25;;;;;;;4.70;1.38;;;6.50;99.90;;;;;;5136622;27;20074;-70
2023/03/07 11:31:07;;;;;;;4.88;1.65;;;6.60;99.90;;;;;;5154300;27;20390;-72
2023/03/07 11:33:57;;;;;;;5.05;1.75;;;6.60;99.90;;;;;;5154553;27;20102;-71
2023/03/07 11:36:37;;;;;;;3.40;1.63;;;6.60;99.90;;;;;;5154469;27;20041;-71
2023/03/07 11:39:16;;;;;;;5.38;2.08;;;6.70;99.90;;;;;;5154828;27;20246;-71
2023/03/07 11:41:54;;;;;;;4.97;1.95;;;6.70;99.90;;;;;;5154696;27;20480;-70
2023/03/07 11:44:28;;;;;;;4.10;2.13;;;6.70;99.90;;;;;;5155060;27;20047;-72
2023/03/07 11:46:56;;;;;;;9.50;1.73;;;6.80;99.90;;;;;;5136208;27;20070;-71
2023/03/07 11:49:52;;;;;;;13.38;2.75;;;6.70;99.90;;;;;;5154481;27;20046;-70
2023/03/07 11:52:42;;;;;;;3.58;1.77;;;6.70;99.90;;;;;;5135976;27;20130;-71
2023/03/07 11:55:13;;;;;;;2.22;1.88;;;6.70;99.90;;;;;;5136517;27;20042;-70
2023/03/07 11:57:45;;;;;;;5.70;1.80;;;6.80;99.90;;;;;;5154927;27;20042;-69
2023/03/07 12:00:40;;;;;;;4.13;2.30;;;6.90;99.90;;;;;;5155132;27;20046;-72
2023/03/07 12:03:06;;;;;;;2.58;1.33;;;6.80;99.90;;;;;;5063088;27;20466;-69
2023/03/07 12:05:35;;;;;;;3.20;1.65;;;6.60;99.90;;;;;;5154259;27;20129;-69
2023/03/07 12:08:23;;;;;;;7.00;1.50;;;6.30;99.90;;;;;;5154587;27;20078;-68
2023/03/07 12:11:15;;;;;;;3.60;1.55;;;5.80;99.90;;;;;;5118443;27;20089;-71
2023/03/07 12:13:53;;;;;;;3.75;1.65;;;5.40;99.90;;;;;;5118694;27;20084;-70
2023/03/07 12:16:45;;;;;;;3.80;1.60;;;5.40;99.90;;;;;;5154437;27;20102;-70
2023/03/07 12:19:49;;;;;;;1.70;1.27;;;5.40;99.90;;;;;;5154098;27;20039;-69
2023/03/07 12:22:27;;;;;;;10.35;2.15;;;5.50;99.90;;;;;;5135629;27;20138;-69
2023/03/07 12:24:56;;;;;;;4.95;1.70;;;5.50;99.90;;;;;;5154125;27;20183;-69
2023/03/07 12:27:29;;;;;;;4.30;2.08;;;5.60;99.90;;;;;;5153937;27;20038;-69
2023/03/07 12:30:02;;;;;;;3.88;1.40;;;5.60;99.90;;;;;;5118454;27;20471;-69
2023/03/07 12:32:30;;;;;;;6.38;1.70;;;5.50;99.90;;;;;;5154365;27;20122;-69
2023/03/07 12:35:40;;;;;;;5.65;1.35;;;5.50;99.90;;;;;;5153758;27;20423;-70
2023/03/07 12:38:16;;;;;;;2.70;2.00;;;5.50;99.90;;;;;;5097772;27;20050;-69
2023/03/07 12:40:55;;;;;;;6.05;1.60;;;5.60;99.90;;;;;;5135797;27;20122;-68
2023/03/07 12:43:42;;;;;;;5.07;1.67;;;5.70;99.90;;;;;;5135766;27;20066;-70
2023/03/07 12:46:20;;;;;;;8.43;1.85;;;5.70;99.90;;;;;;5153777;27;20054;-70
2023/03/07 12:49:00;;;;;;;3.50;1.52;;;5.80;99.90;;;;;;5135830;27;20046;-68
2023/03/07 12:51:32;;;;;;;5.97;1.95;;;5.80;99.90;;;;;;5153788;27;20098;-69
2023/03/07 12:54:07;;;;;;;2.28;1.60;;;5.90;99.90;;;;;;5135189;27;20053;-68
2023/03/07 12:57:02;;;;;;;4.35;2.00;;;5.90;99.90;;;;;;5135732;27;20039;-69
2023/03/07 12:59:30;;;;;;;5.65;1.77;;;5.80;99.90;;;;;;5158195;27;20039;-70
2023/03/07 13:02:14;;;;;;;7.13;2.10;;;5.80;99.90;;;;;;5122418;27;20042;-69
2023/03/07 13:04:43;;;;;;;4.78;1.80;;;5.70;99.90;;;;;;5157460;27;20043;-71
2023/03/07 13:07:16;;;;;;;4.32;2.20;;;5.80;99.90;;;;;;5122116;27;20122;-69
2023/03/07 13:09:44;;;;;;;3.40;1.65;;;5.90;99.90;;;;;;5139388;27;20046;-69